• Join FlightAware (Why Join?)
  • Login
  • US Flag 
04:54AM EDT


 

Airport Tracker/Info


-or-


 

Live Flight TrackerFlight Track Log ✈ AWE2180 ✈ 07-Apr-2013 ✈ KDCA - KLGA

Flight Track Log - Related Links

Times and Time Zones

All times are in EDT time to prevent confusion due to time zone crossing. See the AWE2180 flight status page for this flight to view local times or setup timezone preferences in your user account.

Time Position Orientation Groundspeed Altitude Reporting Facility
EDT Latitude Longitude Course Direction KTS MPH feet Rate Location/Type
05:23PM 38.8192 -77.0383 72° East 158 182 1,700  Level Washington Center
05:23PM 38.8000 -77.0333 169° South 189 217 2,800 2,520 Climbing Potomac TRACON
05:25PM 38.9101 -76.7798 57° Northeast  Level FlightAware Approximate
05:25PM 38.8100 -76.9317 83° East 166 191 6,800  Level Washington Center
05:26PM 38.9333 -76.6976 90° East  Level FlightAware Approximate
05:26PM 38.8775 -76.8556 41° Northeast 220 253 9,800  Level Washington Center
05:27PM 38.9568 -76.6128 67° East  Level FlightAware Approximate
05:27PM 38.9431 -76.7767 43° Northeast 285 328 12,500  Level Washington Center
05:28PM 38.9807 -76.5273 72° East  Level FlightAware Approximate
05:28PM 38.9753 -76.6569 71° East 319 367 14,600  Level Washington Center
05:29PM 39.0014 -76.5239 76° East 347 399 16,500 2,160 Climbing Washington Center
05:30PM 39.0275 -76.3853 76° East 374 430 19,000 2,220 Climbing Washington Center
05:31PM 39.0386 -76.2411 84° East 389 448 21,000 960 Climbing Washington Center
05:32PM 39.0436 -76.1075 87° East 402 463 21,000  Level Washington Center
05:33PM 39.0483 -75.9606 88° East 407 468 21,000  Level Washington Center
05:34PM 39.0547 -75.8214 87° East 401 461 21,000  Level Washington Center
05:35PM 39.0925 -75.6986 68° East 387 445 21,000  Level Washington Center
05:36PM 39.1717 -75.5969 45° Northeast 368 423 21,000  Level Washington Center
05:37PM 39.2550 -75.4950 43° Northeast 382 440 21,000  Level Washington Center
05:38PM 39.3489 -75.4144 34° Northeast 400 460 21,000  Level Washington Center
05:39PM 39.4403 -75.3308 35° Northeast 400 460 21,000  Level Washington Center
05:40PM 39.5317 -75.2497 34° Northeast 400 460 21,000 -600 Level Washington Center
05:41PM 39.6253 -75.1631 35° Northeast 400 460 19,900 -1,500 Descending Washington Center
05:42PM 39.7144 -75.0817 35° Northeast 400 460 18,100 -1,800 Descending Washington Center
05:43PM 39.8119 -75.0000 33° Northeast 389 448 16,400 -1,800 Descending Washington Center
05:44PM 39.8992 -74.9181 36° Northeast 389 448 14,600 -1,740 Descending Washington Center
05:45PM 39.9756 -74.8225 44° Northeast 389 448 13,000 -1,680 Descending Washington Center
05:46PM 40.0333 -74.7500 44° Northeast 374 430 11,700 -1,740 Descending New York TRACON
05:47PM 40.1000 -74.6500 49° Northeast 362 417 10,000 -900 Descending New York TRACON
05:48PM 40.1500 -74.5667 52° Northeast 324 373 10,000  Level New York TRACON
05:49PM 40.2167 -74.4833 44° Northeast 324 373 10,000  Level New York TRACON
05:50PM 40.2833 -74.4000 44° Northeast 321 369 10,000  Level New York TRACON
05:51PM 40.3500 -74.3167 44° Northeast 321 369 10,000 -300 Level New York TRACON
05:52PM 40.4167 -74.2333 44° Northeast 318 366 9,400 -1,200 Descending New York TRACON
05:53PM 40.4667 -74.1500 52° Northeast 316 364 7,700 -1,680 Descending New York TRACON
05:54PM 40.5333 -74.0833 37° Northeast 306 352 6,100 -1,620 Descending New York TRACON
05:55PM 40.6167 -74.0333 24° Northeast 299 344 4,500 -1,020 Descending New York TRACON
05:56PM 40.7000 -74.0333 360° North 285 328 4,000 -240 Descending New York TRACON
05:57PM 40.7667 -74.0000 21° North 271 312 4,000  Level New York TRACON
05:58PM 40.8167 -73.9667 27° Northeast 218 251 4,000 -60 Level New York TRACON
05:59PM 40.8667 -73.9167 37° Northeast 218 251 3,900 -540 Descending New York TRACON
06:00PM 40.9167 -73.8667 37° Northeast 214 246 3,000 -480 Descending New York TRACON
06:01PM 40.9667 -73.8333 27° Northeast 216 249 3,000  Level New York TRACON
06:02PM 40.9500 -73.7667 108° East 190 219 3,000 -60 Level New York TRACON
06:03PM 40.9167 -73.7667 180° South 162 186 2,900 -480 Descending New York TRACON
06:04PM 40.8667 -73.8000 207° Southwest 148 170 2,100 -780 Descending New York TRACON
06:05PM 40.8333 -73.8333 217° Southwest 143 165 1,300 -840 Descending New York TRACON